Time;durP1;ratioP1;P1;durP2;ratioP2;P2;SDS_P1;SDS_P2;PMS_P1;PMS_P2;Temp;Humidity;BMP_temperature;BMP_pressure;BME280_temperature;BME280_humidity;BME280_pressure;Samples;Min_cycle;Max_cycle;Signal;HPM_P1;HPM_P2
2023/07/03 00:00:42;;;;;;;;;;;;;;;16.27;63.50;100885.78;5054381;28;1726;-73
2023/07/03 00:03:07;;;;;;;;;;;;;;;16.23;63.14;100899.34;5053136;28;1546;-73
2023/07/03 00:05:33;;;;;;;;;;;;;;;16.22;63.21;100893.31;5055539;28;1189;-73
2023/07/03 00:07:58;;;;;;;;;;;;;;;16.21;63.76;100896.91;5055231;28;1024;-73
2023/07/03 00:10:23;;;;;;;;;;;;;;;16.19;63.72;100872.69;5055856;28;1236;-73
2023/07/03 00:12:49;;;;;;;;;;;;;;;16.16;63.79;100883.47;5047364;28;1912;-73
2023/07/03 00:15:14;;;;;;;;;;;;;;;16.13;63.37;100889.84;5059786;28;1266;-73
2023/07/03 00:17:40;;;;;;;;;;;;;;;16.10;63.23;100889.34;5053253;28;1902;-73
2023/07/03 00:20:06;;;;;;;;;;;;;;;16.09;63.37;100888.53;5058569;28;1389;-73
2023/07/03 00:22:31;;;;;;;;;;;;;;;16.07;63.84;100887.88;5052584;28;1513;-73
2023/07/03 00:24:56;;;;;;;;;;;;;;;16.06;63.64;100872.34;5053142;28;1227;-73
2023/07/03 00:27:21;;;;;;;;;;;;;;;16.02;63.59;100877.06;5060107;28;1706;-73
2023/07/03 00:29:47;;;;;;;;;;;;;;;16.02;63.40;100871.03;5053942;28;993;-73
2023/07/03 00:32:12;;;;;;;;;;;;;;;15.98;63.30;100869.69;5055240;28;1403;-73
2023/07/03 00:34:37;;;;;;;;;;;;;;;15.98;63.48;100874.94;5060530;28;1273;-73
2023/07/03 00:37:02;;;;;;;;;;;;;;;15.97;64.02;100870.69;5059681;28;1906;-73
2023/07/03 00:39:28;;;;;;;;;;;;;;;15.97;63.57;100873.28;5059306;28;1046;-73
2023/07/03 00:41:53;;;;;;;;;;;;;;;15.92;63.83;100877.19;5053404;28;1440;-73
2023/07/03 00:44:19;;;;;;;;;;;;;;;15.93;63.87;100868.38;5054888;28;1045;-73
2023/07/03 00:46:45;;;;;;;;;;;;;;;15.92;63.74;100877.19;5052095;28;1479;-73
2023/07/03 00:49:11;;;;;;;;;;;;;;;15.89;63.78;100877.53;5055515;28;1108;-73
2023/07/03 00:51:39;;;;;;;;;;;;;;;15.90;64.11;100873.13;5056171;28;1005;-73
2023/07/03 00:54:04;;;;;;;;;;;;;;;15.86;63.57;100877.84;5061698;28;1279;-73
2023/07/03 00:56:29;;;;;;;;;;;;;;;15.84;63.88;100874.56;5052568;28;1348;-73
2023/07/03 00:58:54;;;;;;;;;;;;;;;15.83;64.20;100872.13;5053873;28;1902;-73
2023/07/03 01:01:25;;;;;;;;;;;;;;;15.79;63.77;100866.38;5057086;28;1224;-73
2023/07/03 01:03:56;;;;;;;;;;;;;;;15.77;64.34;100873.56;5056129;28;1259;-73
2023/07/03 01:06:23;;;;;;;;;;;;;;;15.74;64.28;100868.63;5055004;28;1314;-73
2023/07/03 01:08:52;;;;;;;;;;;;;;;15.73;64.19;100867.00;5057004;28;1192;-73
2023/07/03 01:11:19;;;;;;;;;;;;;;;15.71;63.97;100861.09;5063197;28;1207;-73
2023/07/03 01:13:45;;;;;;;;;;;;;;;15.70;64.49;100862.06;5062134;28;1204;-73
2023/07/03 01:16:11;;;;;;;;;;;;;;;15.68;64.54;100855.38;5058877;28;1994;-73
2023/07/03 01:18:37;;;;;;;;;;;;;;;15.64;64.27;100867.94;5054342;28;1906;-73
2023/07/03 01:21:06;;;;;;;;;;;;;;;15.59;64.45;100867.56;5061668;28;1786;-73
2023/07/03 01:23:36;;;;;;;;;;;;;;;15.55;64.46;100872.28;5058305;28;1215;-73
2023/07/03 01:26:03;;;;;;;;;;;;;;;15.52;65.11;100863.94;5054124;28;1518;-73
2023/07/03 01:28:29;;;;;;;;;;;;;;;15.49;64.68;100872.09;5055242;28;1121;-73
2023/07/03 01:30:55;;;;;;;;;;;;;;;15.48;64.81;100873.06;5065002;28;1287;-73
2023/07/03 01:33:25;;;;;;;;;;;;;;;15.49;64.72;100874.72;5051484;28;1573;-73
2023/07/03 01:35:51;;;;;;;;;;;;;;;15.48;65.12;100878.28;5055678;28;1541;-73
2023/07/03 01:38:17;;;;;;;;;;;;;;;15.46;65.51;100875.00;5057948;28;1973;-73
2023/07/03 01:40:43;;;;;;;;;;;;;;;15.45;65.51;100866.34;5057931;28;1225;-73
2023/07/03 01:43:09;;;;;;;;;;;;;;;15.44;65.33;100863.91;5054461;28;1334;-73
2023/07/03 01:45:42;;;;;;;;;;;;;;;15.44;65.65;100861.28;5056187;28;1227;-73
2023/07/03 01:48:08;;;;;;;;;;;;;;;15.39;65.71;100852.13;5052822;28;1259;-73
2023/07/03 01:50:33;;;;;;;;;;;;;;;15.38;65.65;100858.31;5056265;28;1454;-73
2023/07/03 01:53:01;;;;;;;;;;;;;;;15.38;65.62;100868.78;5051500;28;1524;-73
2023/07/03 01:55:35;;;;;;;;;;;;;;;15.39;65.95;100859.94;5057753;28;1228;-73
2023/07/03 01:58:03;;;;;;;;;;;;;;;15.37;66.12;100856.69;5052531;28;1914;-73
2023/07/03 02:00:37;;;;;;;;;;;;;;;15.35;66.06;100853.38;5060506;28;1438;-73
2023/07/03 02:03:05;;;;;;;;;;;;;;;15.36;65.93;100844.56;5054860;28;1410;-73
2023/07/03 02:05:38;;;;;;;;;;;;;;;15.34;66.03;100836.06;5056837;28;1317;-73
2023/07/03 02:08:05;;;;;;;;;;;;;;;15.31;66.61;100840.78;5060717;28;890;-73
2023/07/03 02:10:31;;;;;;;;;;;;;;;15.33;66.24;100844.91;5059897;28;1272;-73
2023/07/03 02:12:56;;;;;;;;;;;;;;;15.34;66.67;100836.06;5059375;28;1186;-73
2023/07/03 02:15:21;;;;;;;;;;;;;;;15.33;66.78;100844.91;5048017;28;1596;-73
2023/07/03 02:17:46;;;;;;;;;;;;;;;15.33;66.61;100844.91;5052796;28;1890;-73
2023/07/03 02:20:14;;;;;;;;;;;;;;;15.31;67.18;100846.84;5051527;28;1174;-73
2023/07/03 02:22:42;;;;;;;;;;;;;;;15.30;67.23;100845.19;5054350;28;998;-73
2023/07/03 02:25:08;;;;;;;;;;;;;;;15.29;67.28;100843.56;5048242;28;1308;-73
2023/07/03 02:27:34;;;;;;;;;;;;;;;15.30;66.96;100847.00;5065766;28;1440;-73
2023/07/03 02:29:59;;;;;;;;;;;;;;;15.27;67.40;100845.53;5052439;28;1004;-73
2023/07/03 02:32:31;;;;;;;;;;;;;;;15.25;67.64;100837.00;5058981;28;1254;-73
2023/07/03 02:34:57;;;;;;;;;;;;;;;15.25;67.99;100837.00;5050149;28;1611;-73
2023/07/03 02:37:22;;;;;;;;;;;;;;;15.29;67.46;100833.09;5056218;28;1906;-73
2023/07/03 02:39:47;;;;;;;;;;;;;;;15.23;68.48;100828.50;5059648;28;1125;-73
2023/07/03 02:42:12;;;;;;;;;;;;;;;15.24;68.64;100830.13;5059647;28;1521;-73
2023/07/03 02:44:37;;;;;;;;;;;;;;;15.25;68.23;100826.53;5052638;28;1077;-73
2023/07/03 02:47:04;;;;;;;;;;;;;;;15.23;68.68;100823.28;5049957;28;1396;-73
2023/07/03 02:49:29;;;;;;;;;;;;;;;15.22;69.47;100826.88;5056484;28;918;-73
2023/07/03 02:51:54;;;;;;;;;;;;;;;15.22;68.86;100826.88;5062942;28;1054;-73
2023/07/03 02:54:19;;;;;;;;;;;;;;;15.21;69.56;100830.47;5048110;28;1374;-73
2023/07/03 02:56:45;;;;;;;;;;;;;;;15.21;69.84;100825.25;5057486;28;1445;-73
2023/07/03 02:59:11;;;;;;;;;;;;;;;15.20;70.29;100823.59;5053545;28;1930;-73
2023/07/03 03:01:36;;;;;;;;;;;;;;;15.18;70.91;100820.31;5058496;28;1135;-73
2023/07/03 03:04:02;;;;;;;;;;;;;;;15.19;70.30;100821.13;5056634;28;1303;-73
2023/07/03 03:06:27;;;;;;;;;;;;;;;15.17;70.57;100823.91;5056014;28;1313;-73
2023/07/03 03:08:53;;;;;;;;;;;;;;;15.14;71.15;100819.81;5053226;28;1295;-73
2023/07/03 03:11:18;;;;;;;;;;;;;;;15.13;71.69;100819.94;5056375;28;1577;-73
2023/07/03 03:13:44;;;;;;;;;;;;;;;15.17;71.14;100813.44;5060430;28;1253;-73
2023/07/03 03:16:09;;;;;;;;;;;;;;;15.14;71.31;100819.00;5046007;28;1396;-73
2023/07/03 03:18:34;;;;;;;;;;;;;;;15.15;71.99;100818.03;5057355;28;1898;-73
2023/07/03 03:21:00;;;;;;;;;;;;;;;15.12;72.07;100819.13;5054630;28;1596;-73
2023/07/03 03:23:25;;;;;;;;;;;;;;;15.11;72.85;100819.28;5052551;28;1593;-73
2023/07/03 03:25:50;;;;;;;;;;;;;;;15.11;72.25;100819.28;5051172;28;1259;-73
2023/07/03 03:28:15;;;;;;;;;;;;;;;15.10;72.79;100828.13;5053850;28;1208;-73
2023/07/03 03:30:40;;;;;;;;;;;;;;;15.09;72.79;100826.47;5051497;28;1561;-73
2023/07/03 03:33:05;;;;;;;;;;;;;;;15.09;72.78;100821.25;5050825;28;1464;-73
2023/07/03 03:35:31;;;;;;;;;;;;;;;15.05;73.01;100819.91;5050529;28;1260;-73
2023/07/03 03:37:56;;;;;;;;;;;;;;;15.03;72.95;100821.88;5055063;28;1968;-73
2023/07/03 03:40:21;;;;;;;;;;;;;;;15.02;73.82;100822.81;5057156;28;1285;-73
2023/07/03 03:42:46;;;;;;;;;;;;;;;15.02;73.89;100830.66;5059554;28;1522;-73
2023/07/03 03:45:11;;;;;;;;;;;;;;;15.00;73.74;100822.16;5051231;28;1220;-73
2023/07/03 03:47:37;;;;;;;;;;;;;;;14.99;73.57;100825.75;5057598;28;990;-73
2023/07/03 03:50:02;;;;;;;;;;;;;;;14.99;73.84;100821.34;5049150;28;1418;-73
2023/07/03 03:52:28;;;;;;;;;;;;;;;14.98;74.28;100824.13;5057616;28;1209;-73
2023/07/03 03:54:53;;;;;;;;;;;;;;;14.96;73.96;100820.81;5057948;28;1337;-73
2023/07/03 03:57:18;;;;;;;;;;;;;;;14.91;73.97;100820.47;5060152;28;1913;-73
2023/07/03 03:59:43;;;;;;;;;;;;;;;14.87;73.91;100828.63;5054148;28;1387;-73
2023/07/03 04:02:08;;;;;;;;;;;;;;;14.85;74.12;100841.03;5061656;28;1287;-73
2023/07/03 04:04:34;;;;;;;;;;;;;;;14.85;74.16;100835.81;5060238;28;1172;-74
2023/07/03 04:06:59;;;;;;;;;;;;;;;14.86;74.61;100837.44;5055892;28;1230;-73
2023/07/03 04:09:24;;;;;;;;;;;;;;;14.82;74.30;100820.41;5054170;28;1345;-73
2023/07/03 04:11:49;;;;;;;;;;;;;;;14.82;74.22;100836.09;5061346;28;1144;-73
2023/07/03 04:14:16;;;;;;;;;;;;;;;14.81;74.57;100839.69;5058822;28;1201;-73
2023/07/03 04:16:42;;;;;;;;;;;;;;;14.76;74.54;100841.91;5059124;28;1532;-72
2023/07/03 04:19:07;;;;;;;;;;;;;;;14.73;74.79;100842.22;5053321;28;1971;-72
2023/07/03 04:21:32;;;;;;;;;;;;;;;14.71;75.10;100841.56;5061675;28;1207;-72
2023/07/03 04:23:57;;;;;;;;;;;;;;;14.71;75.56;100843.34;5062386;28;1204;-71
2023/07/03 04:26:23;;;;;;;;;;;;;;;14.74;74.98;100846.50;5059185;28;1075;-72
2023/07/03 04:28:49;;;;;;;;;;;;;;;14.74;76.00;100838.66;5055111;28;1618;-72
2023/07/03 04:31:14;;;;;;;;;;;;;;;14.71;75.94;100830.28;5062761;28;1424;-72
2023/07/03 04:33:39;;;;;;;;;;;;;;;14.70;75.93;100837.31;5051848;28;1476;-71
2023/07/03 04:36:04;;;;;;;;;;;;;;;14.67;76.02;100842.81;5053860;28;1144;-71
2023/07/03 04:38:30;;;;;;;;;;;;;;;14.69;75.88;100840.91;5059967;28;1926;-72
2023/07/03 04:40:56;;;;;;;;;;;;;;;14.69;76.71;100830.47;5060903;28;1416;-71
2023/07/03 04:43:21;;;;;;;;;;;;;;;14.70;76.35;100834.69;5063165;28;1092;-71
2023/07/03 04:45:51;;;;;;;;;;;;;;;14.68;77.02;100839.25;5058000;28;1173;-72
2023/07/03 04:48:17;;;;;;;;;;;;;;;14.69;76.33;100851.34;5053474;28;1599;-72
2023/07/03 04:50:42;;;;;;;;;;;;;;;14.68;77.15;100854.94;5056515;28;1211;-72
2023/07/03 04:53:08;;;;;;;;;;;;;;;14.69;77.42;100860.97;5062429;28;1288;-72
2023/07/03 04:55:33;;;;;;;;;;;;;;;14.69;77.71;100856.56;5054903;28;1380;-73
2023/07/03 04:57:59;;;;;;;;;;;;;;;14.68;78.03;100860.16;5064925;28;1985;-73
2023/07/03 05:00:25;;;;;;;;;;;;;;;14.67;77.54;100861.09;5053462;28;1380;-73
2023/07/03 05:02:51;;;;;;;;;;;;;;;14.64;78.11;100864.03;5050806;28;2073;-72
2023/07/03 05:05:19;;;;;;;;;;;;;;;14.63;78.36;100872.81;5051896;28;1259;-73
2023/07/03 05:07:45;;;;;;;;;;;;;;;14.63;78.44;100867.59;5053295;28;1212;-73
2023/07/03 05:10:11;;;;;;;;;;;;;;;14.64;78.30;100871.84;5053667;28;1357;-73
2023/07/03 05:12:37;;;;;;;;;;;;;;;14.63;78.35;100867.59;5055529;28;1309;-72
2023/07/03 05:15:03;;;;;;;;;;;;;;;14.61;78.90;100865.13;5055290;28;1347;-73
2023/07/03 05:17:29;;;;;;;;;;;;;;;14.60;79.24;100878.34;5043599;28;1973;-73
2023/07/03 05:19:55;;;;;;;;;;;;;;;14.61;79.20;100879.97;5062012;28;1402;-73
2023/07/03 05:22:21;;;;;;;;;;;;;;;14.65;79.34;100870.06;5055265;28;1432;-73
2023/07/03 05:24:47;;;;;;;;;;;;;;;14.66;79.49;100869.09;5057644;28;1204;-73
2023/07/03 05:27:12;;;;;;;;;;;;;;;14.67;79.54;100879.38;5057529;28;1257;-73
2023/07/03 05:29:37;;;;;;;;;;;;;;;14.70;79.92;100884.31;5047734;28;1269;-73
2023/07/03 05:32:02;;;;;;;;;;;;;;;14.73;79.91;100878.75;5056336;28;1576;-73
2023/07/03 05:34:27;;;;;;;;;;;;;;;14.78;79.50;100876.53;5054276;28;1268;-73
2023/07/03 05:36:53;;;;;;;;;;;;;;;14.80;80.21;100890.28;5055033;28;1156;-73
2023/07/03 05:39:18;;;;;;;;;;;;;;;14.82;80.18;100888.31;5057577;28;1898;-73
2023/07/03 05:41:44;;;;;;;;;;;;;;;14.83;79.63;100884.72;5060686;28;1360;-73
2023/07/03 05:44:09;;;;;;;;;;;;;;;14.86;79.63;100891.44;5051341;28;1167;-73
2023/07/03 05:46:34;;;;;;;;;;;;;;;14.90;80.22;100894.56;5059239;28;1329;-73
2023/07/03 05:48:59;;;;;;;;;;;;;;;14.92;79.75;100893.47;5056709;28;1279;-73
2023/07/03 05:51:24;;;;;;;;;;;;;;;14.94;79.97;100890.69;5052017;28;1578;-73
2023/07/03 05:53:50;;;;;;;;;;;;;;;14.93;79.54;100883.81;5059161;28;1315;-73
2023/07/03 05:56:15;;;;;;;;;;;;;;;14.95;79.84;100887.09;5060061;28;1306;-73
2023/07/03 05:58:40;;;;;;;;;;;;;;;14.99;79.90;100891.06;5054561;28;1890;-73
2023/07/03 06:01:05;;;;;;;;;;;;;;;14.99;80.10;100896.28;5058456;28;1436;-73
2023/07/03 06:03:31;;;;;;;;;;;;;;;15.03;79.90;100901.06;5056679;28;1319;-73
2023/07/03 06:05:57;;;;;;;;;;;;;;;15.08;80.50;100897.97;5055722;28;1522;-73
2023/07/03 06:08:22;;;;;;;;;;;;;;;15.14;80.14;100897.38;5053867;28;1184;-73
2023/07/03 06:10:47;;;;;;;;;;;;;;;15.17;79.83;100897.06;5050111;28;1428;-73
2023/07/03 06:13:13;;;;;;;;;;;;;;;15.23;80.21;100901.66;5054801;28;1125;-73
2023/07/03 06:15:38;;;;;;;;;;;;;;;15.26;79.89;100895.34;5052137;28;1518;-73
2023/07/03 06:18:03;;;;;;;;;;;;;;;15.26;80.01;100890.91;5053740;28;1997;-73
2023/07/03 06:20:29;;;;;;;;;;;;;;;15.26;80.26;100911.81;5050900;28;1241;-73
2023/07/03 06:22:54;;;;;;;;;;;;;;;15.28;79.93;100909.88;5060139;28;1144;-73
2023/07/03 06:25:19;;;;;;;;;;;;;;;15.26;79.76;100906.59;5056892;28;1149;-73
2023/07/03 06:27:45;;;;;;;;;;;;;;;15.27;79.33;100908.22;5060427;28;1525;-73
2023/07/03 06:30:10;;;;;;;;;;;;;;;15.29;79.83;100911.50;5055551;28;1105;-73
2023/07/03 06:32:36;;;;;;;;;;;;;;;15.32;80.44;100905.97;5064016;28;983;-73
2023/07/03 06:35:02;;;;;;;;;;;;;;;15.35;79.36;100910.88;5054539;28;1167;-72
2023/07/03 06:37:27;;;;;;;;;;;;;;;15.36;79.57;100902.06;5057430;28;1893;-73
2023/07/03 06:39:52;;;;;;;;;;;;;;;15.37;79.37;100901.13;5050928;28;1152;-73
2023/07/03 06:42:17;;;;;;;;;;;;;;;15.40;79.53;100903.41;5063669;28;1317;-73
2023/07/03 06:44:43;;;;;;;;;;;;;;;15.44;79.24;100910.94;5056747;28;1421;-73
2023/07/03 06:47:08;;;;;;;;;;;;;;;15.46;79.73;100916.84;5054035;28;1474;-72
2023/07/03 06:49:35;;;;;;;;;;;;;;;15.45;79.03;100910.78;5055338;28;1077;-73
2023/07/03 06:52:00;;;;;;;;;;;;;;;15.45;79.10;100909.97;5064674;28;1152;-73
2023/07/03 06:54:25;;;;;;;;;;;;;;;15.41;79.08;100915.50;5050681;28;1403;-73
2023/07/03 06:56:50;;;;;;;;;;;;;;;15.39;79.20;100916.63;5052710;28;1263;-73
2023/07/03 06:59:16;;;;;;;;;;;;;;;15.36;79.21;100917.75;5059362;28;1961;-73
2023/07/03 07:01:41;;;;;;;;;;;;;;;15.36;79.36;100922.97;5055621;28;1326;-73
2023/07/03 07:04:06;;;;;;;;;;;;;;;15.34;79.91;100917.09;5057419;28;2231;-73
2023/07/03 07:06:32;;;;;;;;;;;;;;;15.38;79.80;100910.59;5055942;28;1263;-73
2023/07/03 07:08:58;;;;;;;;;;;;;;;15.40;80.08;100921.69;5057028;28;1411;-72
2023/07/03 07:11:28;;;;;;;;;;;;;;;15.41;80.00;100912.88;5060650;28;1232;-72
2023/07/03 07:13:55;;;;;;;;;;;;;;;15.40;79.85;100919.09;5058232;28;1553;-73
2023/07/03 07:16:22;;;;;;;;;;;;;;;15.41;80.02;100923.34;5060971;28;1248;-73
2023/07/03 07:18:48;;;;;;;;;;;;;;;15.41;80.26;100931.19;5054285;28;1906;-73
2023/07/03 07:21:13;;;;;;;;;;;;;;;15.44;80.14;100929.25;5060395;28;1269;-73
2023/07/03 07:23:39;;;;;;;;;;;;;;;15.43;80.11;100928.44;5059367;28;1451;-73
2023/07/03 07:26:04;;;;;;;;;;;;;;;15.43;79.96;100938.06;5052870;28;1898;-73
2023/07/03 07:28:29;;;;;;;;;;;;;;;15.43;80.21;100917.97;5054025;28;951;-73
2023/07/03 07:30:55;;;;;;;;;;;;;;;15.47;80.10;100923.69;5062992;23;1995;-73
2023/07/03 07:33:22;;;;;;;;;;;;;;;15.49;79.83;100919.16;5033141;28;6450;-73
2023/07/03 07:35:47;;;;;;;;;;;;;;;15.53;80.23;100923.06;5043612;28;1208;-73
2023/07/03 07:38:13;;;;;;;;;;;;;;;15.60;79.87;100924.13;5054243;28;1962;-73
2023/07/03 07:40:38;;;;;;;;;;;;;;;15.66;80.14;100924.34;5056354;28;1205;-72
2023/07/03 07:43:03;;;;;;;;;;;;;;;15.71;79.77;100929.06;5046301;28;1423;-72
2023/07/03 07:45:30;;;;;;;;;;;;;;;15.75;79.86;100930.41;5041259;28;1327;-73
2023/07/03 07:47:55;;;;;;;;;;;;;;;15.85;79.46;100933.75;5045502;28;1435;-73
2023/07/03 07:50:20;;;;;;;;;;;;;;;15.96;79.93;100939.69;5052898;28;1048;-73
2023/07/03 07:52:45;;;;;;;;;;;;;;;16.02;79.48;100934.63;5048027;28;1517;-73
2023/07/03 07:55:11;;;;;;;;;;;;;;;16.09;79.40;100933.00;5042601;28;1195;-73
2023/07/03 07:57:36;;;;;;;;;;;;;;;16.16;79.32;100935.81;5045066;28;1977;-73
2023/07/03 08:00:02;;;;;;;;;;;;;;;16.22;78.82;100935.16;5046026;28;1595;-73
2023/07/03 08:02:27;;;;;;;;;;;;;;;16.30;78.46;100935.22;5043038;28;1555;-73
2023/07/03 08:04:52;;;;;;;;;;;;;;;16.42;78.71;100936.56;5043652;28;1437;-73
2023/07/03 08:07:17;;;;;;;;;;;;;;;16.53;78.40;100943.28;5054308;28;1102;-73
2023/07/03 08:09:43;;;;;;;;;;;;;;;16.60;77.37;100944.28;5048076;28;1503;-73
2023/07/03 08:12:08;;;;;;;;;;;;;;;16.58;77.44;100940.19;5038750;28;1245;-73
2023/07/03 08:14:33;;;;;;;;;;;;;;;16.56;76.83;100947.38;5050983;28;1287;-72
2023/07/03 08:16:58;;;;;;;;;;;;;;;16.53;76.62;100943.28;5040881;28;1273;-73
2023/07/03 08:19:24;;;;;;;;;;;;;;;16.56;76.63;100952.59;5043650;28;1890;-73
2023/07/03 08:21:49;;;;;;;;;;;;;;;16.56;76.42;100942.94;5044589;28;1907;-73
2023/07/03 08:24:14;;;;;;;;;;;;;;;16.62;76.68;100946.72;5047375;28;1141;-73
2023/07/03 08:26:41;;;;;;;;;;;;;;;16.67;76.55;100952.28;5046636;28;1003;-73
2023/07/03 08:29:06;;;;;;;;;;;;;;;16.69;75.96;100947.72;5041502;28;1345;-72
2023/07/03 08:31:31;;;;;;;;;;;;;;;16.71;76.13;100954.47;5043395;28;1102;-73
2023/07/03 08:33:57;;;;;;;;;;;;;;;16.74;75.54;100945.44;5033627;28;981;-73
2023/07/03 08:36:22;;;;;;;;;;;;;;;16.85;75.11;100947.75;5044616;28;1169;-73
2023/07/03 08:38:47;;;;;;;;;;;;;;;16.74;75.05;100950.69;5040607;28;1902;-73
2023/07/03 08:41:13;;;;;;;;;;;;;;;16.78;75.01;100952.00;5039895;28;1209;-73
2023/07/03 08:43:40;;;;;;;;;;;;;;;16.84;74.65;100956.59;5050323;28;1086;-73
2023/07/03 08:46:08;;;;;;;;;;;;;;;16.86;74.44;100957.28;5050504;28;1388;-73
2023/07/03 08:48:35;;;;;;;;;;;;;;;16.93;74.27;100950.41;5044187;28;1656;-72
2023/07/03 08:51:02;;;;;;;;;;;;;;;16.98;73.80;100953.34;5060222;28;1230;-72
2023/07/03 08:53:29;;;;;;;;;;;;;;;17.08;73.72;100952.34;5052712;28;1160;-73
2023/07/03 08:56:04;;;;;;;;;;;;;;;17.13;73.13;100950.06;5047636;28;1200;-73
2023/07/03 08:58:29;;;;;;;;;;;;;;;17.14;72.86;100952.50;5050814;28;1898;-73
2023/07/03 09:00:57;;;;;;;;;;;;;;;17.22;72.82;100954.31;5050901;28;1197;-73
2023/07/03 09:03:34;;;;;;;;;;;;;;;17.33;72.51;100956.59;5055571;28;1126;-73
2023/07/03 09:06:18;;;;;;;;;;;;;;;17.38;71.96;100948.25;5053129;28;1340;-73
2023/07/03 09:08:55;;;;;;;;;;;;;;;17.53;71.27;100951.81;5052698;28;1283;-73
2023/07/03 09:11:22;;;;;;;;;;;;;;;17.65;71.69;100962.75;5052639;28;1298;-73
2023/07/03 09:13:49;;;;;;;;;;;;;;;17.83;70.91;100952.88;5053981;28;1208;-73
2023/07/03 09:16:18;;;;;;;;;;;;;;;17.86;70.47;100957.81;5046776;28;1413;-73
2023/07/03 09:18:46;;;;;;;;;;;;;;;17.99;70.40;100950.22;5047411;28;1894;-73
2023/07/03 09:21:12;;;;;;;;;;;;;;;18.13;69.81;100953.13;5053577;28;1225;-73
2023/07/03 09:23:39;;;;;;;;;;;;;;;18.19;67.89;100962.94;5053710;28;1268;-73
2023/07/03 09:26:09;;;;;;;;;;;;;;;18.16;66.23;100955.38;5045515;28;1462;-73
2023/07/03 09:28:37;;;;;;;;;;;;;;;18.24;66.36;100958.00;5050844;28;1530;-73
2023/07/03 09:31:02;;;;;;;;;;;;;;;18.24;65.62;100950.13;5041014;28;1296;-73
2023/07/03 09:33:28;;;;;;;;;;;;;;;18.33;65.32;100948.25;5049103;28;1537;-73
2023/07/03 09:35:53;;;;;;;;;;;;;;;18.37;64.52;100952.19;5046657;28;1410;-73
2023/07/03 09:38:22;;;;;;;;;;;;;;;18.37;63.33;100950.38;5048457;28;1905;-73
2023/07/03 09:40:49;;;;;;;;;;;;;;;18.40;62.20;100960.50;5038795;28;1330;-73
2023/07/03 09:43:18;;;;;;;;;;;;;;;18.24;62.35;100971.94;5040548;28;1344;-73
2023/07/03 09:45:44;;;;;;;;;;;;;;;18.14;61.82;100965.25;5032522;28;1303;-73
2023/07/03 09:48:17;;;;;;;;;;;;;;;18.11;61.45;100970.81;5046680;28;1268;-73
2023/07/03 09:50:43;;;;;;;;;;;;;;;18.03;61.30;100962.00;5052533;28;1221;-73
2023/07/03 09:53:13;;;;;;;;;;;;;;;17.94;60.70;100965.63;5050117;28;1537;-73
2023/07/03 09:55:39;;;;;;;;;;;;;;;17.94;60.95;100976.13;5052975;28;1108;-73
2023/07/03 09:58:12;;;;;;;;;;;;;;;17.99;61.03;100973.81;5042277;28;1890;-73
2023/07/03 10:00:43;;;;;;;;;;;;;;;18.25;58.97;100962.25;5048254;28;1466;-73
2023/07/03 10:03:08;;;;;;;;;;;;;;;18.16;59.80;100973.75;5037835;28;1295;-73
2023/07/03 10:05:33;;;;;;;;;;;;;;;18.37;59.04;100979.25;5051066;28;1316;-73
2023/07/03 10:08:03;;;;;;;;;;;;;;;18.47;58.31;100982.47;5048678;28;1330;-73
2023/07/03 10:10:30;;;;;;;;;;;;;;;18.58;57.81;100974.22;5054492;28;1239;-73
2023/07/03 10:13:00;;;;;;;;;;;;;;;18.64;57.81;100982.34;5041163;28;1554;-73
2023/07/03 10:15:28;;;;;;;;;;;;;;;18.79;56.71;100975.41;5048916;28;1203;-73
2023/07/03 10:18:06;;;;;;;;;;;;;;;18.82;57.42;100982.94;5042686;28;1969;-73
2023/07/03 10:20:33;;;;;;;;;;;;;;;18.96;56.80;100984.81;5045665;28;1550;-73
2023/07/03 10:23:02;;;;;;;;;;;;;;;19.07;56.49;100979.13;5054167;28;1076;-73
2023/07/03 10:25:30;;;;;;;;;;;;;;;19.22;55.73;100978.38;5046955;28;1098;-73
2023/07/03 10:27:58;;;;;;;;;;;;;;;19.33;55.75;100984.00;5045857;28;1274;-73
2023/07/03 10:30:23;;;;;;;;;;;;;;;19.48;55.83;100985.84;5039407;28;1829;-73
2023/07/03 10:32:51;;;;;;;;;;;;;;;19.66;55.78;100988.16;5053155;28;1171;-73
2023/07/03 10:35:22;;;;;;;;;;;;;;;19.65;55.08;100997.06;5042992;28;1176;-73
2023/07/03 10:37:53;;;;;;;;;;;;;;;19.62;55.13;101001.69;5037177;28;1914;-73
2023/07/03 10:40:22;;;;;;;;;;;;;;;19.64;55.04;100990.97;5043031;28;1216;-73
2023/07/03 10:42:50;;;;;;;;;;;;;;;19.57;54.45;100998.75;5052406;28;1129;-73
2023/07/03 10:45:15;;;;;;;;;;;;;;;19.49;53.80;101003.25;5040556;28;1017;-73
2023/07/03 10:47:47;;;;;;;;;;;;;;;19.33;54.44;100996.34;5043759;28;1414;-73
2023/07/03 10:50:12;;;;;;;;;;;;;;;19.22;54.22;101008.09;5043767;28;1515;-73
2023/07/03 10:52:52;;;;;;;;;;;;;;;19.13;54.60;101003.09;5041970;28;1212;-73
2023/07/03 10:55:20;;;;;;;;;;;;;;;19.05;54.23;100993.47;5045415;28;1362;-73
2023/07/03 10:57:52;;;;;;;;;;;;;;;18.93;54.78;100995.69;5049793;28;1957;-73
2023/07/03 11:00:20;;;;;;;;;;;;;;;18.87;54.89;100998.16;5042616;28;1224;-73
2023/07/03 11:02:51;;;;;;;;;;;;;;;18.85;55.48;100998.34;5044320;28;1176;-73
2023/07/03 11:05:19;;;;;;;;;;;;;;;18.82;55.00;100990.84;5044041;28;1601;-73
2023/07/03 11:07:56;;;;;;;;;;;;;;;18.79;55.77;100992.00;5046973;28;1125;-73
2023/07/03 11:10:21;;;;;;;;;;;;;;;18.85;55.51;100990.47;5051546;28;1403;-73
2023/07/03 11:12:51;;;;;;;;;;;;;;;18.92;56.48;100991.41;5042633;28;1153;-73
2023/07/03 11:15:31;;;;;;;;;;;;;;;19.05;56.05;100989.00;5045794;28;1840;-73
2023/07/03 11:18:05;;;;;;;;;;;;;;;19.18;55.77;100995.50;5052592;28;1898;-73
2023/07/03 11:20:35;;;;;;;;;;;;;;;19.12;55.78;100996.19;5046062;28;1249;-73
2023/07/03 11:23:07;;;;;;;;;;;;;;;19.11;56.32;100990.13;5047144;28;1416;-73
2023/07/03 11:25:58;;;;;;;;;;;;;;;19.09;55.81;100998.16;5039374;28;1506;-73
2023/07/03 11:28:23;;;;;;;;;;;;;;;19.07;56.38;100994.91;5038649;28;1421;-73
2023/07/03 11:30:49;;;;;;;;;;;;;;;19.09;55.94;100998.16;5042336;28;1499;-73
2023/07/03 11:33:15;;;;;;;;;;;;;;;19.02;56.28;100991.97;5042507;28;1220;-73
2023/07/03 11:35:51;;;;;;;;;;;;;;;19.05;56.22;100990.84;5040827;28;1561;-73
2023/07/03 11:38:18;;;;;;;;;;;;;;;19.09;56.37;100982.38;5039136;28;1897;-73
2023/07/03 11:41:04;;;;;;;;;;;;;;;19.00;57.09;100983.47;5037331;28;1575;-73
2023/07/03 11:43:33;;;;;;;;;;;;;;;18.93;56.41;100993.06;5038394;28;1129;-73
2023/07/03 11:45:58;;;;;;;;;;;;;;;18.91;57.16;100989.75;5037782;28;1208;-73
2023/07/03 11:48:35;;;;;;;;;;;;;;;18.96;56.96;100995.31;5023201;28;1372;-73
2023/07/03 11:51:03;;;;;;;;;;;;;;;19.04;56.44;100982.13;5027462;28;1280;-73
2023/07/03 11:53:35;;;;;;;;;;;;;;;19.05;56.35;100985.56;5015675;28;1622;-73
2023/07/03 11:56:02;;;;;;;;;;;;;;;19.22;55.63;100978.38;5024510;28;1321;-73
2023/07/03 11:58:29;;;;;;;;;;;;;;;19.34;55.28;100976.94;5023284;28;1961;-73
2023/07/03 12:01:13;;;;;;;;;;;;;;;19.52;54.89;100976.59;5020823;28;1313;-73
2023/07/03 12:03:54;;;;;;;;;;;;;;;19.72;54.61;100987.44;5032752;28;1087;-73
2023/07/03 12:06:38;;;;;;;;;;;;;;;19.89;53.38;100978.34;5027384;28;1469;-73
2023/07/03 12:09:19;;;;;;;;;;;;;;;20.02;50.97;100983.81;5032461;28;994;-73
2023/07/03 12:12:00;;;;;;;;;;;;;;;19.82;51.73;100996.69;5029083;28;1390;-73
2023/07/03 12:14:51;;;;;;;;;;;;;;;19.79;50.63;100996.25;5033290;28;1120;-73
2023/07/03 12:17:17;;;;;;;;;;;;;;;19.98;48.35;101003.59;5036547;28;1284;-73
2023/07/03 12:19:43;;;;;;;;;;;;;;;19.96;49.05;100989.81;5036594;28;1945;-73
2023/07/03 12:22:11;;;;;;;;;;;;;;;20.08;48.42;100993.59;5036506;28;1457;-73
2023/07/03 12:24:36;;;;;;;;;;;;;;;20.07;48.48;100991.97;5030755;28;1253;-73
2023/07/03 12:27:03;;;;;;;;;;;;;;;20.10;48.79;100981.06;5025383;28;1347;-73
2023/07/03 12:29:50;;;;;;;;;;;;;;;20.33;47.56;100985.38;5032588;28;1176;-73
2023/07/03 12:32:31;;;;;;;;;;;;;;;20.25;48.12;100982.88;5030574;28;1317;-73
2023/07/03 12:35:10;;;;;;;;;;;;;;;20.24;48.63;100991.75;5028333;28;999;-73
2023/07/03 12:37:40;;;;;;;;;;;;;;;20.21;48.64;100992.13;5029687;28;1909;-73
2023/07/03 12:40:07;;;;;;;;;;;;;;;20.15;48.35;100999.78;5028641;28;1076;-73
2023/07/03 12:42:33;;;;;;;;;;;;;;;20.02;47.81;100996.16;5032656;28;1444;-73
2023/07/03 12:45:09;;;;;;;;;;;;;;;20.03;48.20;100987.25;5028655;28;1017;-73
2023/07/03 12:47:34;;;;;;;;;;;;;;;19.91;48.52;100991.34;5032478;28;1090;-73